Time;durP1;ratioP1;P1;durP2;ratioP2;P2;SDS_P1;SDS_P2;PMS_P1;PMS_P2;Temp;Humidity;BMP_temperature;BMP_pressure;BME280_temperature;BME280_humidity;BME280_pressure;Samples;Min_cycle;Max_cycle;Signal;HPM_P1;HPM_P2
2021/12/10 00:02:32;;;;;;;11.80;4.07;;;;;;;3.69;72.99;97862.50;4980505;28;20042;-79
2021/12/10 00:04:58;;;;;;;11.25;3.20;;;;;;;3.57;73.85;97856.19;4975840;28;20039;-79
2021/12/10 00:07:25;;;;;;;5.05;3.63;;;;;;;3.50;74.08;97852.22;4941805;28;20042;-77
2021/12/10 00:09:58;;;;;;;7.82;3.70;;;;;;;3.42;73.72;97841.34;4975449;28;20070;-78
2021/12/10 00:12:38;;;;;;;9.57;3.28;;;;;;;3.36;73.46;97839.91;4970650;28;20556;-79
2021/12/10 00:15:06;;;;;;;11.80;4.28;;;;;;;3.36;73.64;97828.66;4962881;28;20519;-77
2021/12/10 00:17:31;;;;;;;6.78;3.92;;;;;;;3.35;73.85;97816.56;4964610;28;20035;-78
2021/12/10 00:19:59;;;;;;;4.75;3.63;;;;;;;3.36;73.81;97816.47;4960324;28;20049;-79
2021/12/10 00:22:34;;;;;;;8.52;3.35;;;;;;;3.39;73.57;97808.47;4961953;28;20526;-79
2021/12/10 00:24:59;;;;;;;9.77;3.60;;;;;;;3.42;73.47;97797.91;4978937;28;20038;-77
2021/12/10 00:27:30;;;;;;;8.68;3.38;;;;;;;3.43;73.21;97791.78;4985630;28;20046;-78
2021/12/10 00:30:05;;;;;;;7.57;3.38;;;;;;;3.44;72.88;97777.81;4984167;28;20087;-77
2021/12/10 00:32:36;;;;;;;6.90;3.15;;;;;;;3.46;72.98;97775.16;4975177;28;20034;-78
2021/12/10 00:35:23;;;;;;;9.70;3.38;;;;;;;3.51;72.86;97767.09;4971225;28;20402;-77
2021/12/10 00:37:49;;;;;;;10.52;3.92;;;;;;;3.46;72.35;97754.31;4972484;28;20118;-78
2021/12/10 00:40:18;;;;;;;7.50;3.05;;;;;;;3.48;72.66;97749.88;4973214;28;20113;-79
2021/12/10 00:42:43;;;;;;;4.82;2.83;;;;;;;3.49;72.49;97740.28;4951780;28;20173;-79
2021/12/10 00:45:11;;;;;;;8.98;3.97;;;;;;;3.49;72.13;97732.47;4971743;28;20442;-78
2021/12/10 00:47:37;;;;;;;13.85;4.15;;;;;;;3.49;71.68;97729.84;4976321;28;20495;-78
2021/12/10 00:50:08;;;;;;;8.02;2.97;;;;;;;3.51;72.04;97725.41;4978022;28;20030;-77
2021/12/10 00:52:33;;;;;;;7.72;2.60;;;;;;;3.50;71.22;97718.53;4982931;28;20594;-79
2021/12/10 00:54:58;;;;;;;9.13;2.70;;;;;;;3.48;71.33;97713.41;4977561;28;20035;-77
2021/12/10 00:57:24;;;;;;;6.03;2.50;;;;;;;3.46;71.54;97710.03;4976225;28;20038;-77
2021/12/10 00:59:50;;;;;;;5.60;2.58;;;;;;;3.48;71.94;97694.31;4974365;28;20042;-79
2021/12/10 01:02:20;;;;;;;13.23;3.92;;;;;;;3.46;71.70;97694.41;4973579;28;20510;-78
2021/12/10 01:04:50;;;;;;;8.63;2.60;;;;;;;3.44;72.06;97685.81;4970684;28;20034;-77
2021/12/10 01:07:20;;;;;;;4.63;2.40;;;;;;;3.44;71.75;97676.22;4970720;28;20495;-76
2021/12/10 01:09:49;;;;;;;10.40;3.75;;;;;;;3.43;72.00;97673.72;4970245;28;20037;-78
2021/12/10 01:12:23;;;;;;;5.75;2.10;;;;;;;3.41;71.71;97658.19;4972632;28;20030;-80
2021/12/10 01:25:54;;;;;;;9.35;2.78;;;;;;;3.31;71.95;97614.50;4953036;28;20042;-78
2021/12/10 01:28:19;;;;;;;4.55;2.38;;;;;;;3.31;72.28;97615.34;4968458;28;20043;-78
2021/12/10 01:30:45;;;;;;;8.98;2.72;;;;;;;3.29;71.99;97606.75;4952971;28;20098;-78
2021/12/10 01:33:14;;;;;;;8.07;2.70;;;;;;;3.26;72.27;97600.91;4968098;28;20046;-78
2021/12/10 01:35:45;;;;;;;6.75;3.10;;;;;;;3.28;72.39;97597.28;4952537;28;20039;-78
2021/12/10 01:38:13;;;;;;;4.22;2.13;;;;;;;3.30;72.04;97587.63;4950991;28;20066;-78
2021/12/10 01:40:48;;;;;;;8.95;2.45;;;;;;;3.30;72.05;97587.63;4942265;28;20039;-78
2021/12/10 01:43:22;;;;;;;7.88;2.95;;;;;;;3.30;72.19;97584.16;4961312;29;20036;-77
2021/12/10 01:46:06;;;;;;;4.45;1.90;;;;;;;3.31;72.18;97578.06;4965324;28;20035;-79
2021/12/10 01:48:36;;;;;;;9.68;2.78;;;;;;;3.33;72.33;97565.78;4967195;28;20027;-77
2021/12/10 01:51:03;;;;;;;4.55;2.25;;;;;;;3.31;72.40;97546.81;4968728;28;20039;-78
2021/12/10 01:53:32;;;;;;;5.25;2.55;;;;;;;3.30;72.22;97551.19;4977192;28;20125;-79
2021/12/10 01:56:02;;;;;;;6.57;2.88;;;;;;;3.32;72.67;97551.06;4975149;28;20058;-76
2021/12/10 01:58:30;;;;;;;6.50;2.20;;;;;;;3.29;72.61;97543.44;4976979;28;20038;-79
2021/12/10 02:01:04;;;;;;;7.40;3.03;;;;;;;3.30;72.45;97537.28;4943571;28;20042;-78
2021/12/10 02:03:29;;;;;;;6.15;3.33;;;;;;;3.28;72.06;97526.97;4972138;28;20038;-77
2021/12/10 02:05:55;;;;;;;3.22;1.90;;;;;;;3.30;72.46;97522.53;4981935;28;20462;-79
2021/12/10 02:08:24;;;;;;;10.65;3.88;;;;;;;3.30;73.06;97522.53;4964709;28;20076;-78
2021/12/10 02:10:49;;;;;;;8.15;2.40;;;;;;;3.33;72.69;97517.16;4985355;28;20117;-78
2021/12/10 02:13:15;;;;;;;4.60;2.22;;;;;;;3.33;72.84;97511.94;4983887;28;20058;-78
2021/12/10 02:15:40;;;;;;;7.50;1.98;;;;;;;3.36;72.68;97505.72;4981028;28;20046;-78
2021/12/10 02:18:08;;;;;;;9.48;2.60;;;;;;;3.40;72.29;97502.00;4975654;28;20063;-78
2021/12/10 02:20:37;;;;;;;7.90;2.70;;;;;;;3.39;71.92;97495.94;4974191;28;20050;-77
2021/12/10 02:23:06;;;;;;;4.22;2.22;;;;;;;3.42;72.50;97494.94;4973712;28;20043;-80
2021/12/10 02:25:36;;;;;;;7.97;2.65;;;;;;;3.41;72.46;97493.25;4968776;28;20611;-78
2021/12/10 02:28:03;;;;;;;5.30;2.38;;;;;;;3.42;72.84;97474.97;4968474;28;20043;-79
2021/12/10 02:30:29;;;;;;;6.50;2.55;;;;;;;3.42;72.46;97474.97;4980530;28;20069;-77
2021/12/10 02:32:55;;;;;;;13.05;2.88;;;;;;;3.46;72.57;97472.16;4981455;28;20035;-79
2021/12/10 02:35:21;;;;;;;6.10;2.40;;;;;;;3.47;71.95;97460.81;4951253;28;20114;-76
2021/12/10 02:37:47;;;;;;;6.53;2.60;;;;;;;3.48;72.26;97463.34;4966484;28;20046;-78
2021/12/10 02:40:16;;;;;;;9.45;3.33;;;;;;;3.50;71.80;97455.44;4964691;28;20040;-76
2021/12/10 02:42:42;;;;;;;6.05;2.13;;;;;;;3.53;71.84;97452.66;4966519;28;20032;-77
2021/12/10 02:45:15;;;;;;;6.70;3.13;;;;;;;3.53;72.08;97450.88;4963335;28;20039;-78
2021/12/10 02:47:40;;;;;;;4.88;2.50;;;;;;;3.56;71.96;97440.28;4962805;28;20097;-77
2021/12/10 02:50:08;;;;;;;12.13;4.25;;;;;;;3.56;71.87;97435.06;4967841;28;20050;-77
2021/12/10 02:52:34;;;;;;;10.18;2.70;;;;;;;3.52;71.68;97432.72;4968200;28;20431;-78
2021/12/10 02:54:59;;;;;;;10.40;2.78;;;;;;;3.55;71.48;97422.16;4966990;28;20035;-77
2021/12/10 02:57:26;;;;;;;4.82;2.20;;;;;;;3.62;71.34;97426.06;4972586;28;20035;-75
2021/12/10 02:59:52;;;;;;;8.27;2.85;;;;;;;3.64;71.28;97426.78;4955904;28;20514;-78
2021/12/10 03:02:21;;;;;;;4.93;2.33;;;;;;;3.67;71.09;97426.63;4964665;28;20035;-79
2021/12/10 03:04:46;;;;;;;8.07;2.58;;;;;;;3.64;71.31;97413.78;4964899;28;20034;-80
2021/12/10 03:07:14;;;;;;;7.90;2.67;;;;;;;3.67;71.25;97411.00;4960537;28;20050;-79
2021/12/10 03:09:45;;;;;;;4.07;1.98;;;;;;;3.71;71.09;97401.22;4958917;28;20035;-79
2021/12/10 03:12:14;;;;;;;4.22;2.47;;;;;;;3.65;70.89;97405.88;4959344;28;20035;-80
2021/12/10 03:14:42;;;;;;;6.18;2.10;;;;;;;3.71;71.03;97409.88;4962490;28;20126;-78
2021/12/10 03:17:12;;;;;;;10.60;1.90;;;;;;;3.74;70.78;97394.06;4960825;28;20559;-79
2021/12/10 03:19:38;;;;;;;6.55;2.38;;;;;;;3.75;70.98;97390.53;4957362;28;20046;-79
2021/12/10 03:22:06;;;;;;;5.72;2.15;;;;;;;3.80;70.65;97387.66;4941778;28;20038;-80
2021/12/10 03:24:33;;;;;;;5.57;2.40;;;;;;;3.80;70.71;97367.63;4959641;28;20038;-78
2021/12/10 03:27:01;;;;;;;7.38;2.58;;;;;;;3.81;70.32;97368.47;4957368;29;20100;-80
2021/12/10 03:29:28;;;;;;;5.95;2.63;;;;;;;3.81;69.98;97356.25;4925795;29;20043;-78
2021/12/10 03:31:56;;;;;;;5.45;2.17;;;;;;;3.80;69.73;97346.78;4956011;29;20125;-79
2021/12/10 03:34:22;;;;;;;9.45;2.20;;;;;;;3.81;69.77;97339.81;4947552;28;20119;-79
2021/12/10 03:36:52;;;;;;;7.57;2.30;;;;;;;3.80;69.96;97345.97;4958515;28;20043;-76
2021/12/10 03:39:21;;;;;;;5.18;1.83;;;;;;;3.74;69.74;97339.34;4953506;28;20042;-76
2021/12/10 03:41:46;;;;;;;8.57;3.00;;;;;;;3.78;69.77;97340.00;4952344;28;20118;-77
2021/12/10 03:44:12;;;;;;;6.60;2.47;;;;;;;3.77;69.72;97333.13;4951783;28;20126;-76
2021/12/10 03:46:38;;;;;;;6.65;2.55;;;;;;;3.77;69.69;97331.34;4951899;28;20043;-76
2021/12/10 03:49:07;;;;;;;8.55;3.33;;;;;;;3.75;69.67;97325.38;4950854;28;20041;-77
2021/12/10 03:51:35;;;;;;;5.45;2.08;;;;;;;3.76;69.35;97321.00;4951977;28;20615;-77
2021/12/10 03:54:00;;;;;;;7.78;2.60;;;;;;;3.75;69.74;97306.31;4950362;28;20047;-76
2021/12/10 03:56:29;;;;;;;9.30;2.28;;;;;;;3.75;69.09;97309.75;4960159;28;20042;-79
2021/12/10 03:58:57;;;;;;;9.23;2.22;;;;;;;3.77;69.07;97310.50;4971314;28;20035;-75
2021/12/10 04:01:28;;;;;;;6.43;2.60;;;;;;;3.80;68.93;97301.66;4971500;28;20062;-76
2021/12/10 04:03:55;;;;;;;6.18;2.60;;;;;;;3.82;69.19;97298.03;4975652;28;20061;-77
2021/12/10 04:06:22;;;;;;;4.65;2.30;;;;;;;3.86;69.19;97301.25;4975660;28;20046;-76
2021/12/10 04:08:48;;;;;;;5.82;1.80;;;;;;;3.88;68.91;97299.41;4974676;28;20097;-77
2021/12/10 04:11:16;;;;;;;6.10;2.78;;;;;;;3.92;68.53;97300.91;4971968;28;20060;-77
2021/12/10 04:13:47;;;;;;;12.70;3.50;;;;;;;3.92;68.91;97282.66;4972105;28;20402;-80
2021/12/10 04:16:14;;;;;;;10.82;2.80;;;;;;;3.88;68.52;97289.81;4954577;28;20118;-78
2021/12/10 04:18:40;;;;;;;4.57;2.20;;;;;;;3.87;68.38;97292.53;4971082;28;20035;-77
2021/12/10 04:21:06;;;;;;;9.68;3.30;;;;;;;3.90;67.41;97289.72;4970206;28;20046;-78
2021/12/10 04:23:33;;;;;;;8.88;2.72;;;;;;;3.91;67.72;97280.97;4971105;28;20566;-78
2021/12/10 04:25:58;;;;;;;10.70;2.75;;;;;;;3.94;67.09;97278.19;4970928;28;20049;-78
2021/12/10 04:28:25;;;;;;;9.65;2.63;;;;;;;3.98;67.19;97276.19;4969862;28;20559;-80
2021/12/10 04:30:51;;;;;;;10.82;2.25;;;;;;;4.02;66.27;97269.88;4953131;28;20035;-78
2021/12/10 04:33:22;;;;;;;10.57;2.40;;;;;;;4.01;66.03;97269.03;4954017;28;20066;-81
2021/12/10 04:35:49;;;;;;;4.40;2.40;;;;;;;4.00;66.77;97256.94;4952864;28;20491;-78
2021/12/10 04:38:16;;;;;;;6.63;2.38;;;;;;;4.06;66.26;97260.91;4955731;28;20043;-80
2021/12/10 04:40:42;;;;;;;8.50;2.05;;;;;;;4.09;66.14;97251.13;4954863;28;20030;-77
2021/12/10 04:43:07;;;;;;;10.48;2.78;;;;;;;4.03;65.81;97235.88;4952750;28;20035;-78
2021/12/10 04:45:33;;;;;;;7.70;2.50;;;;;;;4.04;65.87;97228.91;4951472;28;20096;-78
2021/12/10 04:47:58;;;;;;;5.93;2.92;;;;;;;4.05;65.65;97225.34;4951639;28;20045;-80
2021/12/10 04:50:27;;;;;;;5.03;2.17;;;;;;;4.06;65.59;97216.59;4958424;28;20622;-80
2021/12/10 04:52:53;;;;;;;10.70;3.15;;;;;;;4.11;65.67;97213.69;4941541;28;20166;-80
2021/12/10 04:55:19;;;;;;;5.65;2.50;;;;;;;4.15;65.97;97215.16;4956476;28;20575;-79
2021/12/10 04:57:45;;;;;;;8.45;2.38;;;;;;;4.16;64.97;97198.56;4956424;28;20095;-80
2021/12/10 05:00:15;;;;;;;6.35;3.25;;;;;;;4.14;65.08;97185.66;4956726;28;20044;-79
2021/12/10 05:02:41;;;;;;;7.07;2.63;;;;;;;4.18;65.12;97183.69;4956424;28;20046;-82
2021/12/10 05:05:08;;;;;;;4.95;2.38;;;;;;;4.21;65.25;97173.91;4957046;28;20169;-79
2021/12/10 05:07:36;;;;;;;7.63;2.83;;;;;;;4.21;64.88;97176.50;4955011;28;20035;-80
2021/12/10 05:10:07;;;;;;;5.55;2.15;;;;;;;4.21;64.87;97173.03;4955112;28;20043;-79
2021/12/10 05:12:33;;;;;;;6.55;3.85;;;;;;;4.17;64.65;97167.19;4951761;28;20035;-79
2021/12/10 05:15:00;;;;;;;9.75;2.78;;;;;;;4.16;64.29;97162.94;4951952;28;20094;-80
2021/12/10 05:17:31;;;;;;;4.80;2.03;;;;;;;4.24;63.71;97163.25;4951720;28;20032;-78
2021/12/10 05:20:00;;;;;;;11.65;2.33;;;;;;;4.25;64.10;97166.69;4951560;28;20118;-81
2021/12/10 05:22:26;;;;;;;8.85;2.80;;;;;;;4.28;64.09;97161.28;4952771;28;20055;-78
2021/12/10 05:24:53;;;;;;;9.02;3.67;;;;;;;4.20;63.52;97153.97;4952422;28;20035;-80
2021/12/10 05:27:19;;;;;;;5.90;2.42;;;;;;;4.23;63.50;97150.31;4953345;28;20042;-76
2021/12/10 05:29:44;;;;;;;6.22;2.35;;;;;;;4.29;63.52;97152.53;4950804;28;20039;-76
2021/12/10 05:32:11;;;;;;;7.93;2.40;;;;;;;4.26;63.18;97144.91;4950011;28;20031;-79
2021/12/10 05:34:40;;;;;;;6.07;2.53;;;;;;;4.26;63.15;97148.34;4950654;28;20487;-77
2021/12/10 05:37:07;;;;;;;11.40;3.40;;;;;;;4.28;63.21;97143.88;4956953;28;20034;-77
2021/12/10 05:39:33;;;;;;;10.00;3.85;;;;;;;4.29;63.43;97140.31;4966315;28;20122;-79
2021/12/10 05:42:00;;;;;;;4.47;2.30;;;;;;;4.32;63.79;97141.06;4956759;28;20059;-78
2021/12/10 05:44:27;;;;;;;5.43;3.30;;;;;;;4.34;63.50;97128.75;4955730;28;20043;-78
2021/12/10 05:46:52;;;;;;;8.48;2.58;;;;;;;4.38;63.76;97127.59;4961575;28;20039;-78
2021/12/10 05:49:18;;;;;;;5.38;2.63;;;;;;;4.34;62.90;97129.59;4966841;28;20464;-76
2021/12/10 05:51:43;;;;;;;9.43;2.88;;;;;;;4.35;62.65;97130.41;4946141;28;20035;-76
2021/12/10 05:54:09;;;;;;;4.10;2.10;;;;;;;4.35;63.08;97120.81;4937559;29;20524;-77
2021/12/10 05:56:34;;;;;;;7.57;2.88;;;;;;;4.38;63.20;97124.97;4968220;28;20042;-77
2021/12/10 05:59:00;;;;;;;9.93;3.17;;;;;;;4.36;63.14;97106.84;4954864;28;20039;-78
2021/12/10 06:01:26;;;;;;;6.28;2.78;;;;;;;4.39;63.52;97105.81;4973622;28;20038;-78
2021/12/10 06:03:52;;;;;;;2.75;1.92;;;;;;;4.40;63.72;97102.25;4973784;28;20034;-77
2021/12/10 06:06:21;;;;;;;10.35;2.35;;;;;;;4.40;64.18;97105.69;4973374;28;20042;-77
2021/12/10 06:08:47;;;;;;;14.25;4.20;;;;;;;4.41;64.13;97112.59;4972347;28;20034;-78
2021/12/10 06:11:13;;;;;;;7.32;2.35;;;;;;;4.37;64.46;97100.69;4975002;28;20035;-79
2021/12/10 06:13:38;;;;;;;4.45;2.55;;;;;;;4.36;65.12;97101.63;4975113;28;20046;-77
2021/12/10 06:16:04;;;;;;;8.23;2.72;;;;;;;4.30;65.18;97102.84;4973945;28;20047;-79
2021/12/10 06:18:30;;;;;;;4.80;2.22;;;;;;;4.34;65.07;97097.47;4972597;28;20177;-78
2021/12/10 06:20:56;;;;;;;7.82;2.58;;;;;;;4.36;65.35;97098.19;4972453;28;20117;-78
2021/12/10 06:23:22;;;;;;;9.35;2.85;;;;;;;4.37;65.62;97095.47;4973015;28;20522;-78
2021/12/10 06:25:48;;;;;;;6.53;2.28;;;;;;;4.34;65.57;97090.47;4972517;28;20116;-79
2021/12/10 06:28:15;;;;;;;11.25;3.60;;;;;;;4.33;65.90;97090.56;4972905;28;20037;-75
2021/12/10 06:30:43;;;;;;;4.78;2.35;;;;;;;4.34;65.82;97093.06;4960746;28;20062;-76
2021/12/10 06:33:12;;;;;;;7.90;2.80;;;;;;;4.33;66.09;97096.59;4954720;28;20031;-78
2021/12/10 06:35:40;;;;;;;7.82;2.45;;;;;;;4.30;66.35;97092.44;4958930;29;20037;-81
2021/12/10 06:38:06;;;;;;;7.82;2.60;;;;;;;4.24;66.15;97092.03;4960926;29;20055;-79
2021/12/10 06:40:36;;;;;;;9.93;2.90;;;;;;;4.22;66.88;97083.47;4943082;28;20475;-80
2021/12/10 06:43:03;;;;;;;16.67;4.25;;;;;;;4.21;66.36;97082.63;4956647;28;20507;-78
2021/12/10 06:45:31;;;;;;;17.73;3.92;;;;;;;4.17;67.11;97083.78;4939145;28;20514;-76
2021/12/10 06:48:00;;;;;;;5.47;2.42;;;;;;;4.17;66.52;97080.34;4955284;28;20051;-78
2021/12/10 06:50:30;;;;;;;10.88;3.65;;;;;;;4.14;67.37;97078.75;4954466;28;20048;-76
2021/12/10 06:52:57;;;;;;;11.38;2.80;;;;;;;4.14;67.84;97083.16;4969044;28;20059;-77
2021/12/10 06:55:23;;;;;;;9.55;3.97;;;;;;;4.12;67.45;97082.41;4943032;28;20039;-77
2021/12/10 06:57:50;;;;;;;8.70;2.35;;;;;;;4.17;67.62;97086.38;4954531;28;20094;-78
2021/12/10 07:00:21;;;;;;;7.75;2.60;;;;;;;4.16;67.17;97084.72;4962793;28;20043;-79
2021/12/10 07:02:46;;;;;;;4.05;2.65;;;;;;;4.11;67.33;97084.19;4970781;28;20039;-78
2021/12/10 07:05:12;;;;;;;3.85;2.03;;;;;;;4.08;67.76;97087.81;4971073;28;20039;-77
2021/12/10 07:07:38;;;;;;;8.48;2.42;;;;;;;4.05;68.16;97085.41;4971027;28;20043;-75
2021/12/10 07:10:06;;;;;;;10.38;2.60;;;;;;;4.07;68.31;97091.38;4960460;28;20035;-76
2021/12/10 07:12:35;;;;;;;8.80;2.67;;;;;;;4.10;68.15;97085.13;4953989;28;20031;-77
2021/12/10 07:15:02;;;;;;;8.13;2.35;;;;;;;4.01;69.03;97080.50;4958741;28;20103;-77
2021/12/10 07:17:28;;;;;;;5.00;2.03;;;;;;;3.99;69.63;97083.22;4972316;28;20035;-79
2021/12/10 07:19:55;;;;;;;5.45;2.58;;;;;;;3.98;69.86;97086.75;4973382;28;20063;-77
2021/12/10 07:22:20;;;;;;;5.82;3.15;;;;;;;3.88;70.69;97083.09;4971894;28;20108;-78
2021/12/10 07:24:45;;;;;;;6.30;2.83;;;;;;;3.72;71.63;97077.22;4971444;28;20039;-78
2021/12/10 07:27:11;;;;;;;7.57;3.03;;;;;;;3.61;72.18;97075.31;4969817;28;20128;-78
2021/12/10 07:29:38;;;;;;;12.32;3.08;;;;;;;3.48;72.59;97069.22;4962541;28;20043;-78
2021/12/10 07:32:04;;;;;;;8.32;2.92;;;;;;;3.36;72.56;97070.84;4952359;28;20074;-77
2021/12/10 07:34:29;;;;;;;11.02;2.83;;;;;;;3.29;73.18;97059.97;4972242;28;20047;-77
2021/12/10 07:36:54;;;;;;;4.43;2.28;;;;;;;3.25;73.65;97045.50;4972117;28;20054;-76
2021/12/10 07:39:20;;;;;;;4.75;2.45;;;;;;;3.33;73.85;97055.41;4969820;28;20479;-76
2021/12/10 07:41:45;;;;;;;6.93;2.08;;;;;;;3.35;73.44;97053.56;4962950;28;20062;-79
2021/12/10 07:44:12;;;;;;;6.13;2.40;;;;;;;3.36;73.44;97052.59;4969141;28;20459;-77
2021/12/10 07:46:39;;;;;;;4.90;2.58;;;;;;;3.41;73.80;97060.97;4968355;28;20099;-80
2021/12/10 07:49:14;;;;;;;7.45;2.90;;;;;;;3.46;73.80;97058.06;4987510;28;20039;-78
2021/12/10 07:51:42;;;;;;;4.47;2.35;;;;;;;3.49;73.06;97050.88;4954174;29;20109;-76
2021/12/10 07:54:09;;;;;;;5.80;2.42;;;;;;;3.54;73.83;97047.97;4951743;29;20031;-73
2021/12/10 07:56:34;;;;;;;4.25;2.33;;;;;;;3.61;73.54;97047.47;4963139;28;20050;-73
2021/12/10 07:59:00;;;;;;;4.93;2.30;;;;;;;3.61;72.54;97049.25;4958795;28;20039;-74
2021/12/10 08:01:29;;;;;;;6.22;3.03;;;;;;;3.65;72.67;97051.56;4958366;28;20181;-72
2021/12/10 08:03:57;;;;;;;4.25;2.60;;;;;;;3.73;71.85;97055.44;4959599;28;20039;-71
2021/12/10 08:06:25;;;;;;;4.65;2.28;;;;;;;3.78;71.62;97054.19;4960938;28;20143;-72
2021/12/10 08:08:50;;;;;;;4.13;2.38;;;;;;;3.83;71.09;97049.50;4956044;28;20050;-70
2021/12/10 08:11:17;;;;;;;3.85;2.10;;;;;;;3.86;70.75;97045.84;4968904;28;20030;-72
2021/12/10 08:13:46;;;;;;;3.13;1.80;;;;;;;3.90;70.80;97047.34;4975691;28;20030;-70
2021/12/10 08:16:11;;;;;;;5.43;2.72;;;;;;;3.93;70.78;97046.31;4957386;28;20062;-72
2021/12/10 08:18:37;;;;;;;4.13;2.15;;;;;;;3.94;70.19;97050.56;4980732;28;20070;-71
2021/12/10 08:21:04;;;;;;;4.65;2.40;;;;;;;3.95;69.58;97049.66;4969568;28;20065;-73
2021/12/10 08:23:30;;;;;;;4.50;3.15;;;;;;;4.00;71.91;97039.75;4958606;28;20502;-70
2021/12/10 08:25:55;;;;;;;4.85;2.28;;;;;;;3.97;69.38;97038.19;4966361;28;20065;-73
2021/12/10 08:28:24;;;;;;;5.85;2.85;;;;;;;4.01;69.86;97047.47;4970733;28;20069;-71
2021/12/10 08:30:50;;;;;;;6.00;2.75;;;;;;;4.00;69.23;97040.56;4968162;28;20376;-72
2021/12/10 08:33:17;;;;;;;5.40;2.58;;;;;;;4.04;69.25;97038.63;4968317;28;20038;-72
2021/12/10 08:35:46;;;;;;;10.00;2.33;;;;;;;4.03;68.60;97048.19;4963678;28;20567;-72
2021/12/10 08:38:13;;;;;;;3.15;1.98;;;;;;;4.11;69.22;97039.88;4954497;28;20035;-71
2021/12/10 08:40:43;;;;;;;5.72;2.72;;;;;;;4.08;67.82;97038.28;4959528;28;20055;-70
2021/12/10 08:43:09;;;;;;;7.85;2.50;;;;;;;4.12;68.49;97038.91;4953013;28;20061;-71
2021/12/10 08:45:35;;;;;;;2.88;2.03;;;;;;;4.15;68.26;97032.66;4962941;28;20058;-72
2021/12/10 08:48:01;;;;;;;6.00;2.25;;;;;;;4.19;69.01;97028.91;4950392;28;20036;-73
2021/12/10 08:50:27;;;;;;;4.75;2.40;;;;;;;4.25;68.34;97037.13;4963892;28;20041;-71
2021/12/10 08:52:57;;;;;;;3.95;2.10;;;;;;;4.28;67.22;97026.53;4964803;28;20035;-72
2021/12/10 08:55:25;;;;;;;7.78;2.40;;;;;;;4.25;67.52;97028.50;4965200;28;20059;-75
2021/12/10 08:57:50;;;;;;;4.68;2.55;;;;;;;4.27;67.71;97026.63;4951816;28;20532;-76
2021/12/10 09:00:17;;;;;;;3.75;2.20;;;;;;;4.23;66.86;97018.19;4969238;28;20042;-76
2021/12/10 09:02:43;;;;;;;6.28;2.63;;;;;;;4.19;66.91;97024.53;4969234;28;20031;-76
2021/12/10 09:05:10;;;;;;;2.60;1.80;;;;;;;4.19;67.27;97021.94;4950085;29;20098;-75
2021/12/10 09:07:36;;;;;;;5.75;2.45;;;;;;;4.23;67.61;97026.00;4950608;29;20040;-75
2021/12/10 09:10:04;;;;;;;4.70;2.65;;;;;;;4.24;67.28;97029.44;4950872;29;20045;-76
2021/12/10 09:12:29;;;;;;;4.70;2.45;;;;;;;4.21;67.20;97027.03;4934354;29;20118;-77
2021/12/10 09:14:57;;;;;;;3.67;2.13;;;;;;;4.21;67.42;97020.06;4952687;28;20177;-76
2021/12/10 09:17:27;;;;;;;3.75;2.00;;;;;;;4.26;67.03;97027.56;4938063;29;20083;-76
2021/12/10 09:19:55;;;;;;;5.82;2.30;;;;;;;4.27;67.21;97021.41;4954107;28;20850;-77
2021/12/10 09:22:23;;;;;;;4.15;2.40;;;;;;;4.27;67.62;97029.22;4954127;28;20521;-76
2021/12/10 09:24:49;;;;;;;3.55;2.13;;;;;;;4.26;67.87;97038.00;4953313;28;20035;-78
2021/12/10 09:27:15;;;;;;;3.95;2.05;;;;;;;4.32;67.62;97048.00;4947701;28;20091;-74
2021/12/10 09:29:44;;;;;;;8.00;2.03;;;;;;;4.29;66.64;97037.78;4932542;29;20603;-77
2021/12/10 09:32:13;;;;;;;5.03;1.90;;;;;;;4.35;66.87;97042.56;4933582;29;20040;-75
2021/12/10 09:34:38;;;;;;;2.72;1.88;;;;;;;4.37;66.52;97052.91;4933217;29;20500;-75
2021/12/10 09:37:05;;;;;;;4.30;1.60;;;;;;;4.41;67.04;97044.78;4931743;29;20119;-75
2021/12/10 09:39:32;;;;;;;2.38;1.65;;;;;;;4.46;66.26;97047.91;4933485;29;20036;-75
2021/12/10 09:41:58;;;;;;;3.53;1.65;;;;;;;4.45;66.11;97053.22;4946253;28;20036;-75
2021/12/10 09:44:25;;;;;;;9.60;2.30;;;;;;;4.45;65.83;97054.03;4945030;28;20508;-76
2021/12/10 09:46:52;;;;;;;3.10;2.00;;;;;;;4.45;66.34;97056.66;4953599;28;20044;-76
2021/12/10 09:49:19;;;;;;;4.30;2.03;;;;;;;4.46;66.16;97049.69;4942415;28;20043;-75
2021/12/10 09:51:51;;;;;;;3.60;1.77;;;;;;;4.48;66.21;97043.41;4951258;28;20035;-76
2021/12/10 09:54:22;;;;;;;10.27;2.30;;;;;;;4.40;65.81;97040.47;4951730;28;20114;-74
2021/12/10 09:57:04;;;;;;;3.75;1.90;;;;;;;4.37;66.42;97040.69;4949872;28;20114;-75
2021/12/10 09:59:30;;;;;;;2.13;1.70;;;;;;;4.40;66.55;97044.88;4953057;28;20031;-77
2021/12/10 10:01:57;;;;;;;4.40;1.60;;;;;;;4.45;66.49;97048.81;4952409;28;20047;-75
2021/12/10 10:04:26;;;;;;;3.90;1.63;;;;;;;4.42;67.42;97045.59;4952534;28;20110;-74
2021/12/10 10:06:58;;;;;;;4.18;1.85;;;;;;;4.33;67.34;97047.06;4951318;28;20063;-75
2021/12/10 10:09:25;;;;;;;2.92;1.85;;;;;;;4.24;66.96;97045.91;4954770;28;20711;-77
2021/12/10 10:11:58;;;;;;;4.22;1.65;;;;;;;4.17;66.91;97036.00;4953569;28;20134;-77
2021/12/10 10:14:25;;;;;;;6.05;2.15;;;;;;;4.16;66.92;97032.56;4957975;28;20050;-77
2021/12/10 10:16:51;;;;;;;3.25;1.58;;;;;;;4.12;67.99;97041.53;4956191;28;20035;-77
2021/12/10 10:19:17;;;;;;;3.88;1.75;;;;;;;4.03;68.10;97035.16;4958058;28;20031;-77
2021/12/10 10:21:48;;;;;;;5.63;2.35;;;;;;;4.04;69.11;97033.41;4933968;29;20060;-76
2021/12/10 10:24:16;;;;;;;2.75;1.88;;;;;;;4.00;69.57;97037.97;4939503;28;20330;-77
2021/12/10 10:26:46;;;;;;;5.10;2.22;;;;;;;3.93;69.58;97036.69;4953936;28;20058;-76
2021/12/10 10:29:15;;;;;;;4.93;2.33;;;;;;;3.82;69.91;97037.44;4942314;29;20035;-77
2021/12/10 10:31:49;;;;;;;5.45;1.83;;;;;;;3.80;71.09;97047.09;4956776;28;20046;-77
2021/12/10 10:34:20;;;;;;;7.68;2.30;;;;;;;3.80;71.21;97043.69;4942206;29;20507;-76
2021/12/10 10:36:46;;;;;;;3.92;2.00;;;;;;;3.76;71.22;97037.81;4937664;29;20469;-77
2021/12/10 10:39:15;;;;;;;3.33;1.38;;;;;;;3.74;71.42;97038.84;4938847;29;20027;-78
2021/12/10 10:41:43;;;;;;;2.67;1.60;;;;;;;3.70;71.99;97040.00;4973483;28;20038;-76
2021/12/10 10:44:09;;;;;;;3.05;1.80;;;;;;;3.60;72.09;97040.59;4974575;28;20109;-77
2021/12/10 10:46:35;;;;;;;3.92;2.45;;;;;;;3.52;72.88;97036.81;4976486;28;20042;-76
2021/12/10 10:49:01;;;;;;;4.90;2.08;;;;;;;3.46;72.60;97038.06;4973077;28;20035;-77
2021/12/10 10:51:31;;;;;;;4.18;1.70;;;;;;;3.43;72.82;97033.06;4973690;28;20042;-77
2021/12/10 10:53:59;;;;;;;6.25;2.63;;;;;;;3.48;73.99;97041.41;4973384;28;20446;-78
2021/12/10 10:56:37;;;;;;;3.00;1.95;;;;;;;3.53;74.59;97041.94;4988010;28;20058;-78
2021/12/10 10:59:26;;;;;;;5.32;3.20;;;;;;;3.53;74.09;97035.91;4972562;28;20499;-79
2021/12/10 11:02:07;;;;;;;4.70;2.30;;;;;;;3.49;74.98;97037.84;4974173;28;20399;-81
2021/12/10 11:04:36;;;;;;;9.57;2.65;;;;;;;3.48;74.48;97036.19;4971491;28;20561;-76
2021/12/10 11:07:20;;;;;;;7.95;2.22;;;;;;;3.46;74.41;97035.44;4973364;28;20053;-76
2021/12/10 11:09:55;;;;;;;7.30;2.92;;;;;;;3.43;74.78;97030.44;4972848;28;20085;-78
2021/12/10 11:12:30;;;;;;;5.28;2.83;;;;;;;3.46;75.10;97026.81;4975017;28;20046;-77
2021/12/10 11:14:58;;;;;;;9.40;2.95;;;;;;;3.38;75.29;97035.13;4971810;28;20027;-76
2021/12/10 11:17:29;;;;;;;4.43;2.35;;;;;;;3.40;75.73;97034.09;4971692;28;20065;-76
2021/12/10 11:20:29;;;;;;;4.18;2.78;;;;;;;3.53;75.21;97039.34;4972692;28;20570;-75
2021/12/10 11:22:58;;;;;;;3.92;1.73;;;;;;;3.58;74.74;97037.25;4920817;28;20030;-75
2021/12/10 11:25:37;;;;;;;8.23;2.33;;;;;;;3.65;75.27;97051.56;4969879;28;20054;-75
2021/12/10 11:28:09;;;;;;;8.30;3.13;;;;;;;3.72;76.59;97045.97;4970779;28;20066;-77
2021/12/10 11:30:40;;;;;;;4.63;2.20;;;;;;;3.64;75.50;97044.69;4971971;28;20041;-76
2021/12/10 11:33:12;;;;;;;7.82;2.75;;;;;;;3.72;77.53;97048.56;4970248;28;20042;-75
2021/12/10 11:35:45;;;;;;;7.63;3.13;;;;;;;3.78;76.30;97058.56;4970794;28;20121;-75
2021/12/10 11:38:16;;;;;;;7.97;3.45;;;;;;;3.78;76.29;97042.94;4971956;28;20048;-76
2021/12/10 11:40:52;;;;;;;7.22;2.85;;;;;;;3.82;76.95;97049.63;4972029;28;20403;-77
2021/12/10 11:48:47;;;;;;;7.40;2.65;;;;;;;3.87;74.78;97060.59;4974482;28;20122;-80
2021/12/10 11:51:17;;;;;;;6.68;3.42;;;;;;;3.86;75.31;97051.94;4974307;28;20491;-79
2021/12/10 11:53:52;;;;;;;4.63;2.20;;;;;;;3.87;74.29;97055.38;4980014;28;20041;-76
2021/12/10 11:56:21;;;;;;;8.10;4.40;;;;;;;3.78;75.28;97059.41;4979908;28;20123;-79
2021/12/10 11:59:05;;;;;;;6.28;2.22;;;;;;;3.83;74.63;97051.28;4981707;28;20041;-78
2021/12/10 12:01:33;;;;;;;5.57;2.17;;;;;;;3.92;74.92;97053.28;4982958;28;20026;-75
2021/12/10 12:04:14;;;;;;;9.52;3.08;;;;;;;4.00;74.51;97058.81;4979080;28;20038;-79